Airfield :
LOGIN :

Register | Disclaimer

   EN    FR    IT 

 










Legend :    VFR   Marginal VFR   IFR   Intensive IFR   Very Intensive IFR
Visi :
Ceiling :
>= 8 km
>= 3000ft
5 to 8 km
1000 to 3000 ft
1500m to 5 km
500 to 1000 ft
800 to 1500m
200 to 500 ft
< 800m
< 200 ft
Symbols :   Thunderstorms  Fog  Heavy snow  Heavy precipitations  Wind > 20 kt
SIGMETs :     Misc.  Thunderstorms  Icing  Turbulence  Mountain Waves  Volcanic Ashes






- Airport Elevation : 751 ft
- IATA code : ENC


LFSN - Nancy Essey

CURRENT METAR :
  • 231430Z AUTO 24017KT 210V270 9999 OVC022 13/08 Q1022

EXPIRED METARs :
  • 231400Z AUTO 23016G27KT 200V270 9999 OVC023 13/08 Q1022
  • 231330Z AUTO 23016KT 200V270 9999 BKN024 OVC031 13/08 Q1022
  • 231300Z AUTO 23014G25KT 200V260 9999 OVC022 13/08 Q1022
  • 231230Z AUTO 23016G31KT 200V260 9999 OVC022 13/08 Q1023
  • 231200Z AUTO 23015KT 190V260 9999 OVC021 13/08 Q1022

Expired Forecast.



MET'MAP, your aeronautical weather chart ! - Copyright ORBIFLY December 2007 - Disclaimer

ORBIFLY MET'MAP TEAM :

Programming & Development : Alexandra Zaïnal
Concept & original design : Baudouin d'Aumeries
Assistance for programming : Marc-Olivier Méhu
Technical & hardware support : Manuel Goepfert

Contact : metmap@orbifly.com




SOURCES & CREDITS :

   NOAA